UAL1180 KDEN-KCOS
Flight info
| Callsign | UAL1180 |
|---|---|
| Flight time | 0h 29m |
| Altitude | 17000 |
| Route | DCT LUFSE V389 ADANE DCT BRK DCT |
| Aircraft | A320/M-SDE3FGHIRWY/LB1 |
Departure
| Time | 2026-05-06 03:50 |
|---|---|
| Airport | Denver International Airport (KDEN) |
Arrival
| Time | 2026-05-06 04:20 |
|---|---|
| Airport | City of Colorado Springs Municipal Airport (KCOS) |
| Time | Latitude | Longitude | Altitude | Speed | Heading |
|---|---|---|---|---|---|
| 2026-05-06 03:22 | 39.85803 | -104.67900 | 5379 ft | 0 kts | 0° |
| 2026-05-06 03:36 | 39.85794 | -104.67900 | 5376 ft | 3 kts | 360° |
| 2026-05-06 03:36 | 39.85774 | -104.67900 | 5376 ft | 3 kts | 360° |
| 2026-05-06 03:36 | 39.85753 | -104.67900 | 5380 ft | 3 kts | 360° |
| 2026-05-06 03:37 | 39.85735 | -104.67900 | 5378 ft | 2 kts | 360° |
| 2026-05-06 03:37 | 39.85731 | -104.67900 | 5379 ft | 0 kts | 360° |
| 2026-05-06 03:41 | 39.85741 | -104.67898 | 5377 ft | 2 kts | 19° |
| 2026-05-06 03:41 | 39.85743 | -104.67884 | 5378 ft | 2 kts | 94° |
| 2026-05-06 03:41 | 39.85738 | -104.67862 | 5378 ft | 4 kts | 111° |
| 2026-05-06 03:42 | 39.85714 | -104.67820 | 5379 ft | 7 kts | 131° |
| 2026-05-06 03:42 | 39.85681 | -104.67774 | 5381 ft | 7 kts | 127° |
| 2026-05-06 03:42 | 39.85667 | -104.67709 | 5381 ft | 8 kts | 94° |
| 2026-05-06 03:42 | 39.85667 | -104.67627 | 5381 ft | 10 kts | 90° |
| 2026-05-06 03:43 | 39.85666 | -104.67528 | 5381 ft | 12 kts | 90° |
| 2026-05-06 03:43 | 39.85665 | -104.67413 | 5381 ft | 14 kts | 90° |
| 2026-05-06 03:43 | 39.85664 | -104.67282 | 5381 ft | 15 kts | 90° |
| 2026-05-06 03:43 | 39.85663 | -104.67137 | 5381 ft | 17 kts | 91° |
| 2026-05-06 03:44 | 39.85662 | -104.66980 | 5381 ft | 18 kts | 90° |
| 2026-05-06 03:44 | 39.85661 | -104.66808 | 5381 ft | 20 kts | 90° |
| 2026-05-06 03:44 | 39.85661 | -104.66641 | 5381 ft | 16 kts | 89° |
| 2026-05-06 03:44 | 39.85677 | -104.66504 | 5380 ft | 16 kts | 82° |
| 2026-05-06 03:45 | 39.85679 | -104.66380 | 5385 ft | 12 kts | 89° |
| 2026-05-06 03:45 | 39.85679 | -104.66285 | 5389 ft | 9 kts | 81° |
| 2026-05-06 03:45 | 39.85722 | -104.66236 | 5390 ft | 10 kts | 6° |
| 2026-05-06 03:45 | 39.85804 | -104.66236 | 5388 ft | 13 kts | 357° |
| 2026-05-06 03:46 | 39.85904 | -104.66232 | 5388 ft | 15 kts | 360° |
| 2026-05-06 03:46 | 39.86016 | -104.66231 | 5387 ft | 17 kts | 0° |
| 2026-05-06 03:46 | 39.86144 | -104.66230 | 5383 ft | 21 kts | 0° |
| 2026-05-06 03:46 | 39.86277 | -104.66227 | 5382 ft | 16 kts | 1° |
| 2026-05-06 03:47 | 39.86394 | -104.66225 | 5382 ft | 17 kts | 1° |
| 2026-05-06 03:47 | 39.86522 | -104.66225 | 5378 ft | 19 kts | 1° |
| 2026-05-06 03:47 | 39.86651 | -104.66224 | 5377 ft | 20 kts | 0° |
| 2026-05-06 03:47 | 39.86798 | -104.66222 | 5372 ft | 23 kts | 0° |
| 2026-05-06 03:48 | 39.86967 | -104.66220 | 5369 ft | 25 kts | 1° |
| 2026-05-06 03:48 | 39.87090 | -104.66219 | 5367 ft | 17 kts | 1° |
| 2026-05-06 03:48 | 39.87220 | -104.66216 | 5365 ft | 20 kts | 359° |
| 2026-05-06 03:48 | 39.87367 | -104.66212 | 5362 ft | 23 kts | 2° |
| 2026-05-06 03:49 | 39.87514 | -104.66213 | 5361 ft | 21 kts | 2° |
| 2026-05-06 03:49 | 39.87656 | -104.66212 | 5362 ft | 19 kts | 2° |
| 2026-05-06 03:49 | 39.87754 | -104.66183 | 5359 ft | 12 kts | 74° |
| 2026-05-06 03:49 | 39.87754 | -104.66047 | 5358 ft | 25 kts | 90° |
| 2026-05-06 03:50 | 39.87750 | -104.65467 | 5353 ft | 97 kts | 90° |
| 2026-05-06 03:50 | 39.87742 | -104.64352 | 5337 ft | 151 kts | 90° |
| 2026-05-06 03:50 | 39.87735 | -104.62820 | 5525 ft | 178 kts | 90° |
| 2026-05-06 03:50 | 39.87647 | -104.61154 | 6152 ft | 188 kts | 104° |
| 2026-05-06 03:51 | 39.87220 | -104.59541 | 7008 ft | 188 kts | 111° |
| 2026-05-06 03:51 | 39.86707 | -104.57912 | 7408 ft | 208 kts | 112° |
| 2026-05-06 03:51 | 39.86117 | -104.56056 | 7726 ft | 229 kts | 112° |
| 2026-05-06 03:51 | 39.85487 | -104.54056 | 8029 ft | 254 kts | 112° |
| 2026-05-06 03:52 | 39.84799 | -104.51848 | 8572 ft | 270 kts | 112° |
| 2026-05-06 03:52 | 39.84095 | -104.49549 | 9360 ft | 276 kts | 112° |
| 2026-05-06 03:52 | 39.83380 | -104.47208 | 10145 ft | 282 kts | 116° |
| 2026-05-06 03:52 | 39.82216 | -104.45066 | 10418 ft | 302 kts | 140° |
| 2026-05-06 03:53 | 39.80332 | -104.43751 | 10774 ft | 316 kts | 167° |
| 2026-05-06 03:53 | 39.78131 | -104.43372 | 10989 ft | 321 kts | 176° |
| 2026-05-06 03:53 | 39.75901 | -104.43156 | 11025 ft | 322 kts | 178° |
| 2026-05-06 03:53 | 39.73664 | -104.42977 | 11026 ft | 322 kts | 178° |
| 2026-05-06 03:54 | 39.71430 | -104.42806 | 11024 ft | 322 kts | 178° |
| 2026-05-06 03:54 | 39.69203 | -104.42628 | 11020 ft | 322 kts | 178° |
| 2026-05-06 03:54 | 39.66966 | -104.42444 | 11015 ft | 322 kts | 177° |
| 2026-05-06 03:54 | 39.64731 | -104.42253 | 11009 ft | 322 kts | 177° |
| 2026-05-06 03:55 | 39.62496 | -104.42057 | 11003 ft | 322 kts | 177° |
| 2026-05-06 03:55 | 39.60262 | -104.41859 | 10998 ft | 322 kts | 177° |
| 2026-05-06 03:55 | 39.58029 | -104.41660 | 10993 ft | 322 kts | 177° |
| 2026-05-06 03:55 | 39.55797 | -104.41460 | 10981 ft | 321 kts | 177° |
| 2026-05-06 03:56 | 39.53572 | -104.41265 | 10976 ft | 320 kts | 177° |
| 2026-05-06 03:56 | 39.51350 | -104.41072 | 10970 ft | 320 kts | 177° |
| 2026-05-06 03:56 | 39.49125 | -104.40877 | 10964 ft | 320 kts | 178° |
| 2026-05-06 03:56 | 39.46903 | -104.40681 | 10951 ft | 320 kts | 177° |
| 2026-05-06 03:57 | 39.44683 | -104.40484 | 10948 ft | 320 kts | 177° |
| 2026-05-06 03:57 | 39.42459 | -104.40285 | 10942 ft | 320 kts | 177° |
| 2026-05-06 03:57 | 39.40237 | -104.40086 | 10942 ft | 320 kts | 177° |
| 2026-05-06 03:57 | 39.38014 | -104.39890 | 10936 ft | 320 kts | 177° |
| 2026-05-06 03:58 | 39.35793 | -104.39696 | 10937 ft | 320 kts | 178° |
| 2026-05-06 03:58 | 39.33562 | -104.39501 | 10935 ft | 322 kts | 178° |
| 2026-05-06 03:58 | 39.31324 | -104.39308 | 10936 ft | 323 kts | 178° |
| 2026-05-06 03:58 | 39.29080 | -104.39113 | 10936 ft | 323 kts | 178° |
| 2026-05-06 03:59 | 39.26838 | -104.38916 | 10941 ft | 323 kts | 178° |
| 2026-05-06 03:59 | 39.24595 | -104.38720 | 10941 ft | 323 kts | 178° |
| 2026-05-06 03:59 | 39.22374 | -104.38528 | 10945 ft | 323 kts | 178° |
| 2026-05-06 03:59 | 39.20130 | -104.38438 | 10955 ft | 322 kts | 181° |
| 2026-05-06 04:00 | 39.17902 | -104.38483 | 10955 ft | 322 kts | 183° |
| 2026-05-06 04:00 | 39.15686 | -104.38601 | 10960 ft | 322 kts | 184° |
| 2026-05-06 04:00 | 39.13452 | -104.38748 | 10963 ft | 322 kts | 184° |
| 2026-05-06 04:00 | 39.11214 | -104.38895 | 10974 ft | 321 kts | 185° |
| 2026-05-06 04:01 | 39.08981 | -104.39032 | 10978 ft | 321 kts | 185° |
| 2026-05-06 04:01 | 39.06746 | -104.39157 | 10982 ft | 321 kts | 184° |
| 2026-05-06 04:01 | 39.04512 | -104.39272 | 10985 ft | 321 kts | 184° |
| 2026-05-06 04:01 | 39.02278 | -104.39367 | 10986 ft | 322 kts | 181° |
| 2026-05-06 04:02 | 39.00037 | -104.39194 | 10989 ft | 323 kts | 177° |
| 2026-05-06 04:02 | 38.97801 | -104.38940 | 10989 ft | 323 kts | 177° |
| 2026-05-06 04:02 | 38.95560 | -104.38678 | 10991 ft | 323 kts | 177° |
| 2026-05-06 04:02 | 38.93324 | -104.38413 | 10993 ft | 323 kts | 177° |
| 2026-05-06 04:03 | 38.91086 | -104.38149 | 10989 ft | 323 kts | 177° |
| 2026-05-06 04:03 | 38.88857 | -104.37888 | 10990 ft | 321 kts | 177° |
| 2026-05-06 04:03 | 38.86638 | -104.37629 | 10989 ft | 320 kts | 177° |
| 2026-05-06 04:03 | 38.84414 | -104.37371 | 10988 ft | 321 kts | 177° |
| 2026-05-06 04:04 | 38.82195 | -104.37112 | 10988 ft | 321 kts | 177° |
| 2026-05-06 04:04 | 38.79971 | -104.36854 | 10985 ft | 320 kts | 177° |
| 2026-05-06 04:04 | 38.77790 | -104.36596 | 10940 ft | 309 kts | 177° |
| 2026-05-06 04:04 | 38.75686 | -104.36345 | 10811 ft | 298 kts | 177° |
| 2026-05-06 04:05 | 38.73675 | -104.36106 | 10507 ft | 284 kts | 177° |
| 2026-05-06 04:05 | 38.71729 | -104.35884 | 10015 ft | 278 kts | 176° |
| 2026-05-06 04:05 | 38.69815 | -104.35682 | 9449 ft | 274 kts | 176° |
| 2026-05-06 04:05 | 38.67929 | -104.35506 | 9060 ft | 270 kts | 176° |
| 2026-05-06 04:06 | 38.66089 | -104.35404 | 8984 ft | 255 kts | 184° |
| 2026-05-06 04:06 | 38.64477 | -104.36047 | 9028 ft | 242 kts | 213° |
| 2026-05-06 04:06 | 38.63234 | -104.37505 | 9032 ft | 242 kts | 225° |
| 2026-05-06 04:06 | 38.62138 | -104.39081 | 9008 ft | 234 kts | 227° |
| 2026-05-06 04:07 | 38.61072 | -104.40651 | 9024 ft | 233 kts | 227° |
| 2026-05-06 04:07 | 38.60008 | -104.42220 | 9028 ft | 233 kts | 227° |
| 2026-05-06 04:07 | 38.58950 | -104.43784 | 9023 ft | 233 kts | 227° |
| 2026-05-06 04:07 | 38.57894 | -104.45350 | 9026 ft | 232 kts | 227° |
| 2026-05-06 04:08 | 38.56839 | -104.46914 | 9024 ft | 232 kts | 227° |
| 2026-05-06 04:08 | 38.55786 | -104.48479 | 9025 ft | 232 kts | 227° |
| 2026-05-06 04:08 | 38.54731 | -104.50041 | 9025 ft | 232 kts | 227° |
| 2026-05-06 04:08 | 38.53676 | -104.51600 | 9028 ft | 232 kts | 227° |
| 2026-05-06 04:09 | 38.52621 | -104.53162 | 9027 ft | 232 kts | 227° |
| 2026-05-06 04:09 | 38.51922 | -104.54196 | 9028 ft | 232 kts | 227° |
| 2026-05-06 04:09 | 38.50867 | -104.55756 | 9021 ft | 231 kts | 227° |
| 2026-05-06 04:09 | 38.49862 | -104.57244 | 9012 ft | 213 kts | 227° |
| 2026-05-06 04:10 | 38.48903 | -104.58671 | 9020 ft | 211 kts | 227° |
| 2026-05-06 04:10 | 38.47948 | -104.60093 | 9026 ft | 211 kts | 227° |
| 2026-05-06 04:10 | 38.46995 | -104.61516 | 9015 ft | 211 kts | 227° |
| 2026-05-06 04:10 | 38.46041 | -104.62940 | 9018 ft | 211 kts | 227° |
| 2026-05-06 04:11 | 38.45089 | -104.64358 | 9020 ft | 210 kts | 227° |
| 2026-05-06 04:11 | 38.44140 | -104.65773 | 9015 ft | 210 kts | 227° |
| 2026-05-06 04:11 | 38.43193 | -104.67190 | 9015 ft | 210 kts | 227° |
| 2026-05-06 04:11 | 38.42245 | -104.68606 | 9013 ft | 210 kts | 227° |
| 2026-05-06 04:12 | 38.41302 | -104.70036 | 9007 ft | 211 kts | 227° |
| 2026-05-06 04:12 | 38.40495 | -104.71599 | 9006 ft | 215 kts | 249° |
| 2026-05-06 04:12 | 38.40446 | -104.73515 | 9012 ft | 224 kts | 284° |
| 2026-05-06 04:12 | 38.41268 | -104.75204 | 8998 ft | 230 kts | 319° |
| 2026-05-06 04:13 | 38.42698 | -104.76064 | 9007 ft | 230 kts | 353° |
| 2026-05-06 04:13 | 38.44241 | -104.75756 | 9005 ft | 227 kts | 30° |
| 2026-05-06 04:13 | 38.45606 | -104.74725 | 9009 ft | 229 kts | 32° |
| 2026-05-06 04:13 | 38.46981 | -104.73705 | 9009 ft | 229 kts | 32° |
| 2026-05-06 04:14 | 38.48358 | -104.72688 | 8996 ft | 228 kts | 32° |
| 2026-05-06 04:14 | 38.49721 | -104.71680 | 8701 ft | 226 kts | 32° |
| 2026-05-06 04:14 | 38.51073 | -104.70681 | 8454 ft | 221 kts | 32° |
| 2026-05-06 04:14 | 38.52365 | -104.69728 | 8283 ft | 211 kts | 32° |
| 2026-05-06 04:15 | 38.53685 | -104.68951 | 8102 ft | 210 kts | 17° |
| 2026-05-06 04:15 | 38.55134 | -104.68674 | 8086 ft | 212 kts | 5° |
| 2026-05-06 04:15 | 38.56616 | -104.68618 | 8082 ft | 213 kts | 2° |
| 2026-05-06 04:15 | 38.58091 | -104.68612 | 8079 ft | 214 kts | 1° |
| 2026-05-06 04:16 | 38.59579 | -104.68611 | 8075 ft | 214 kts | 1° |
| 2026-05-06 04:16 | 38.61069 | -104.68608 | 8070 ft | 214 kts | 1° |
| 2026-05-06 04:16 | 38.62555 | -104.68606 | 8073 ft | 213 kts | 1° |
| 2026-05-06 04:16 | 38.63989 | -104.68604 | 8066 ft | 197 kts | 1° |
| 2026-05-06 04:17 | 38.65300 | -104.68603 | 8041 ft | 180 kts | 0° |
| 2026-05-06 04:17 | 38.66513 | -104.68600 | 8032 ft | 172 kts | 360° |
| 2026-05-06 04:17 | 38.67699 | -104.68597 | 8131 ft | 169 kts | 359° |
| 2026-05-06 04:17 | 38.68869 | -104.68595 | 8002 ft | 167 kts | 360° |
| 2026-05-06 04:18 | 38.70019 | -104.68593 | 7803 ft | 165 kts | 0° |
| 2026-05-06 04:18 | 38.71163 | -104.68591 | 7588 ft | 164 kts | 0° |
| 2026-05-06 04:18 | 38.72298 | -104.68589 | 7378 ft | 162 kts | 0° |
| 2026-05-06 04:18 | 38.73420 | -104.68587 | 7140 ft | 160 kts | 1° |
| 2026-05-06 04:19 | 38.74516 | -104.68586 | 6892 ft | 154 kts | 0° |
| 2026-05-06 04:19 | 38.75566 | -104.68584 | 6656 ft | 148 kts | 359° |
| 2026-05-06 04:19 | 38.76583 | -104.68583 | 6432 ft | 145 kts | 359° |
| 2026-05-06 04:19 | 38.77584 | -104.68584 | 6288 ft | 144 kts | 359° |
| 2026-05-06 04:20 | 38.78535 | -104.68584 | 6198 ft | 120 kts | 0° |
| 2026-05-06 04:20 | 38.79064 | -104.68581 | 6193 ft | 48 kts | 0° |
| 2026-05-06 04:20 | 38.79373 | -104.68581 | 6192 ft | 41 kts | 360° |
| 2026-05-06 04:20 | 38.79643 | -104.68579 | 6193 ft | 36 kts | 0° |
| 2026-05-06 04:21 | 38.79872 | -104.68579 | 6194 ft | 31 kts | 359° |
| 2026-05-06 04:21 | 38.80068 | -104.68605 | 6197 ft | 26 kts | 347° |
| 2026-05-06 04:21 | 38.80222 | -104.68687 | 6195 ft | 14 kts | 332° |
| 2026-05-06 04:21 | 38.80286 | -104.68750 | 6195 ft | 11 kts | 306° |
| 2026-05-06 04:22 | 38.80279 | -104.68836 | 6194 ft | 10 kts | 264° |
| 2026-05-06 04:22 | 38.80279 | -104.68953 | 6194 ft | 22 kts | 269° |
| 2026-05-06 04:22 | 38.80279 | -104.69154 | 6194 ft | 20 kts | 271° |
| 2026-05-06 04:23 | 38.80279 | -104.69474 | 6194 ft | 16 kts | 269° |
| 2026-05-06 04:23 | 38.80277 | -104.69610 | 6194 ft | 14 kts | 272° |
| 2026-05-06 04:23 | 38.80255 | -104.69716 | 6194 ft | 12 kts | 216° |
| 2026-05-06 04:23 | 38.80179 | -104.69725 | 6194 ft | 10 kts | 180° |
| 2026-05-06 04:24 | 38.80113 | -104.69726 | 6194 ft | 9 kts | 188° |
| 2026-05-06 04:24 | 38.80077 | -104.69770 | 6194 ft | 7 kts | 255° |
| 2026-05-06 04:24 | 38.80076 | -104.69826 | 6194 ft | 6 kts | 271° |
| 2026-05-06 04:24 | 38.80077 | -104.69874 | 6194 ft | 5 kts | 270° |
| 2026-05-06 04:25 | 38.80075 | -104.69915 | 6194 ft | 4 kts | 257° |
| 2026-05-06 04:25 | 38.80056 | -104.69931 | 6194 ft | 3 kts | 205° |
| 2026-05-06 04:25 | 38.80037 | -104.69935 | 6194 ft | 5 kts | 181° |
| 2026-05-06 04:25 | 38.80000 | -104.69934 | 6193 ft | 5 kts | 179° |
| 2026-05-06 04:26 | 38.79966 | -104.69934 | 6194 ft | 5 kts | 179° |
| 2026-05-06 04:26 | 38.79936 | -104.69933 | 6194 ft | 4 kts | 180° |
| 2026-05-06 04:26 | 38.79909 | -104.69935 | 6194 ft | 4 kts | 188° |
| 2026-05-06 04:26 | 38.79893 | -104.69952 | 6194 ft | 2 kts | 246° |
| 2026-05-06 04:27 | 38.79892 | -104.69972 | 6194 ft | 2 kts | 264° |
| 2026-05-06 04:27 | 38.79891 | -104.69993 | 6194 ft | 2 kts | 267° |
| 2026-05-06 04:27 | 38.79890 | -104.70017 | 6194 ft | 3 kts | 269° |
| 2026-05-06 04:27 | 38.79890 | -104.70023 | 6194 ft | 0 kts | 269° |